createdAt,value
2017-12-20T00:01:48.642Z,101008.09
2017-12-20T00:04:14.977Z,101008.58
2017-12-20T00:06:41.349Z,101011.80
2017-12-20T00:09:07.673Z,101015.78
2017-12-20T00:11:34.005Z,101006.27
2017-12-20T00:14:00.553Z,101013.97
2017-12-20T00:16:26.873Z,101013.84
2017-12-20T00:18:53.206Z,101020.56
2017-12-20T00:21:19.577Z,101015.31
2017-12-20T00:23:45.920Z,101021.19
2017-12-20T00:26:12.253Z,101022.60
2017-12-20T00:28:38.653Z,101019.09
2017-12-20T00:31:04.985Z,101025.10
2017-12-20T00:33:31.192Z,101026.38
2017-12-20T00:35:57.441Z,101026.47
2017-12-20T00:38:23.646Z,101032.77
2017-12-20T00:40:49.949Z,101031.09
2017-12-20T00:43:16.536Z,101033.73
2017-12-20T00:45:42.853Z,101034.17
2017-12-20T00:48:09.176Z,101027.81
2017-12-20T00:50:35.537Z,101020.53
2017-12-20T00:53:01.846Z,101029.38
2017-12-20T00:55:28.165Z,101026.73
2017-12-20T00:57:54.553Z,101031.47
2017-12-20T01:00:20.886Z,101033.28
2017-12-20T01:02:47.262Z,101029.45
2017-12-20T01:05:13.718Z,101026.55
2017-12-20T01:07:40.125Z,101029.79
2017-12-20T01:10:06.483Z,101028.36
2017-12-20T01:12:32.870Z,101027.41
2017-12-20T01:14:59.221Z,101032.34
2017-12-20T01:17:25.553Z,101035.86
2017-12-20T01:19:51.910Z,101033.75
2017-12-20T01:22:18.226Z,101036.66
2017-12-20T01:24:44.558Z,101034.54
2017-12-20T01:27:10.933Z,101032.30
2017-12-20T01:29:37.278Z,101037.55
2017-12-20T01:32:03.633Z,101028.48
2017-12-20T01:34:30.003Z,101030.66
2017-12-20T01:36:56.357Z,101028.39
2017-12-20T01:39:22.698Z,101028.94
2017-12-20T01:41:49.194Z,101030.89
2017-12-20T01:44:15.525Z,101024.08
2017-12-20T01:46:41.882Z,101025.07
2017-12-20T01:49:08.245Z,101033.27
2017-12-20T01:51:34.626Z,101027.34
2017-12-20T01:54:00.989Z,101027.44
2017-12-20T01:56:27.427Z,101026.63
2017-12-20T01:58:53.853Z,101028.80
2017-12-20T02:01:20.187Z,101023.97
2017-12-20T02:03:46.556Z,101023.55
2017-12-20T02:06:12.896Z,101019.25
2017-12-20T02:08:39.242Z,101025.33
2017-12-20T02:11:05.641Z,101024.49
2017-12-20T02:13:31.982Z,101023.59
2017-12-20T02:15:58.317Z,101011.06
2017-12-20T02:18:24.717Z,101014.97
2017-12-20T02:20:57.984Z,101021.01
2017-12-20T02:23:24.404Z,101021.92
2017-12-20T02:25:50.813Z,101022.34
2017-12-20T02:28:17.273Z,101018.08
2017-12-20T02:30:43.718Z,101018.56
2017-12-20T02:33:22.386Z,101021.66
2017-12-20T02:35:48.871Z,101021.27
2017-12-20T02:38:27.493Z,101027.36
2017-12-20T02:40:53.943Z,101033.43
2017-12-20T02:43:20.370Z,101033.14
2017-12-20T02:45:46.769Z,101037.13
2017-12-20T02:48:13.222Z,101038.89
2017-12-20T02:50:39.634Z,101032.87
2017-12-20T02:53:06.089Z,101029.85
2017-12-20T02:55:32.539Z,101032.02
2017-12-20T02:57:58.931Z,101031.62
2017-12-20T03:00:25.345Z,101032.91
2017-12-20T03:02:51.837Z,101030.80
2017-12-20T03:05:18.261Z,101030.76
2017-12-20T03:07:44.689Z,101035.44
2017-12-20T03:10:11.122Z,101031.91
2017-12-20T03:12:37.521Z,101040.47
2017-12-20T03:15:03.918Z,101036.54
2017-12-20T03:17:30.334Z,101036.17
2017-12-20T03:19:56.667Z,101031.38
2017-12-20T03:22:23.105Z,101036.50
2017-12-20T03:24:49.495Z,101030.46
2017-12-20T03:27:15.859Z,101043.81
2017-12-20T03:29:42.237Z,101041.46
2017-12-20T03:32:08.693Z,101046.14
2017-12-20T03:34:35.049Z,101050.86
2017-12-20T03:37:01.418Z,101057.20
2017-12-20T03:39:27.842Z,101061.67
2017-12-20T03:41:54.198Z,101059.16
2017-12-20T03:44:20.556Z,101061.20
2017-12-20T03:46:46.961Z,101060.74
2017-12-20T03:49:13.293Z,101062.88
2017-12-20T03:51:39.816Z,101062.92
2017-12-20T03:54:06.262Z,101064.56
2017-12-20T03:56:32.718Z,101065.30
2017-12-20T03:58:59.094Z,101070.79
2017-12-20T04:01:25.485Z,101072.92
2017-12-20T04:03:51.886Z,101070.36
2017-12-20T04:06:18.305Z,101069.94
2017-12-20T04:08:44.709Z,101065.39
2017-12-20T04:11:11.081Z,101059.13
2017-12-20T04:13:37.425Z,101067.85
2017-12-20T04:16:03.853Z,101069.06
2017-12-20T04:18:30.193Z,101069.97
2017-12-20T04:20:56.550Z,101072.61
2017-12-20T04:23:22.921Z,101081.45
2017-12-20T04:25:49.246Z,101081.02
2017-12-20T04:28:15.613Z,101086.08
2017-12-20T04:30:42.077Z,101091.57
2017-12-20T04:33:08.397Z,101092.77
2017-12-20T04:35:34.713Z,101100.75
2017-12-20T04:38:01.269Z,101098.57
2017-12-20T04:40:27.618Z,101101.05
2017-12-20T04:42:53.949Z,101102.34
2017-12-20T04:45:20.386Z,101102.34
2017-12-20T04:47:46.717Z,101100.19
2017-12-20T04:50:13.049Z,101105.41
2017-12-20T04:52:39.472Z,101108.58
2017-12-20T04:55:05.817Z,101108.27
2017-12-20T04:57:32.158Z,101111.86
2017-12-20T04:59:58.548Z,101113.14
2017-12-20T05:02:31.959Z,101115.15
2017-12-20T05:04:58.353Z,101110.03
2017-12-20T05:07:24.685Z,101112.61
2017-12-20T05:09:51.013Z,101119.02
2017-12-20T05:12:17.382Z,101119.78
2017-12-20T05:14:43.710Z,101118.40
2017-12-20T05:17:10.021Z,101126.30
2017-12-20T05:19:36.381Z,101129.84
2017-12-20T05:22:02.717Z,101133.67
2017-12-20T05:24:29.045Z,101134.72
2017-12-20T05:26:55.413Z,101134.83
2017-12-20T05:29:21.729Z,101129.14
2017-12-20T05:31:48.047Z,101135.83
2017-12-20T05:34:14.529Z,101143.62
2017-12-20T05:36:40.865Z,101148.44
2017-12-20T05:39:07.244Z,101144.65
2017-12-20T05:41:33.625Z,101147.95
2017-12-20T05:43:59.953Z,101144.89
2017-12-20T05:46:26.325Z,101143.73
2017-12-20T05:48:52.702Z,101147.03
2017-12-20T05:51:19.041Z,101146.96
2017-12-20T05:53:45.379Z,101145.92
2017-12-20T05:56:11.753Z,101144.57
2017-12-20T05:58:38.105Z,101140.25
2017-12-20T06:01:04.434Z,101141.73
2017-12-20T06:03:30.785Z,101138.79
2017-12-20T06:05:57.097Z,101141.47
2017-12-20T06:08:23.448Z,101136.08
2017-12-20T06:10:49.838Z,101148.06
2017-12-20T06:13:16.182Z,101139.94
2017-12-20T06:15:42.645Z,101139.58
2017-12-20T06:18:09.030Z,101140.76
2017-12-20T06:20:35.370Z,101143.25
2017-12-20T06:23:01.862Z,101144.17
2017-12-20T06:25:28.228Z,101147.75
2017-12-20T06:27:54.573Z,101152.69
2017-12-20T06:30:20.901Z,101154.86
2017-12-20T06:32:47.294Z,101158.53
2017-12-20T06:35:13.621Z,101156.45
2017-12-20T06:37:39.949Z,101159.13
2017-12-20T06:40:06.504Z,101160.05
2017-12-20T06:42:32.970Z,101155.46
2017-12-20T06:44:59.306Z,101162.06
2017-12-20T06:47:25.703Z,101167.80
2017-12-20T06:49:52.200Z,101170.53
2017-12-20T06:52:18.905Z,101169.72
2017-12-20T06:54:45.432Z,101176.58
2017-12-20T06:57:11.850Z,101180.06
2017-12-20T06:59:38.180Z,101186.56
2017-12-20T07:02:04.566Z,101187.47
2017-12-20T07:04:31.159Z,101196.63
2017-12-20T07:06:57.522Z,101194.97
2017-12-20T07:09:23.888Z,101200.20
2017-12-20T07:11:50.437Z,101196.92
2017-12-20T07:14:16.761Z,101203.35
2017-12-20T07:16:43.129Z,101205.86
2017-12-20T07:19:09.486Z,101206.25
2017-12-20T07:21:35.808Z,101209.41
2017-12-20T07:24:02.184Z,101215.50
2017-12-20T07:26:28.537Z,101216.62
2017-12-20T07:28:54.870Z,101219.35
2017-12-20T07:31:21.230Z,101221.64
2017-12-20T07:33:47.566Z,101222.98
2017-12-20T07:36:13.938Z,101229.36
2017-12-20T07:38:40.326Z,101229.20
2017-12-20T07:41:06.697Z,101236.67
2017-12-20T07:43:33.059Z,101236.63
2017-12-20T07:45:59.441Z,101240.24
2017-12-20T07:48:25.782Z,101233.42
2017-12-20T07:50:52.121Z,101232.84
2017-12-20T07:53:18.537Z,101231.39
2017-12-20T07:55:44.893Z,101232.72
2017-12-20T07:58:11.233Z,101234.86
2017-12-20T08:00:37.609Z,101238.66
2017-12-20T08:03:03.965Z,101240.47
2017-12-20T08:05:30.282Z,101240.17
2017-12-20T08:07:56.641Z,101244.25
2017-12-20T08:10:22.977Z,101255.03
2017-12-20T08:12:49.540Z,101251.45
2017-12-20T08:15:15.905Z,101258.88
2017-12-20T08:17:42.238Z,101254.19
2017-12-20T08:20:08.737Z,101251.16
2017-12-20T08:22:35.125Z,101251.11
2017-12-20T08:25:01.478Z,101251.89
2017-12-20T08:27:27.889Z,101248.98
2017-12-20T08:29:54.319Z,101255.45
2017-12-20T08:32:20.680Z,101251.25
2017-12-20T08:34:47.013Z,101250.81
2017-12-20T08:37:13.398Z,101256.59
2017-12-20T08:39:39.773Z,101249.73
2017-12-20T08:42:06.101Z,101246.77
2017-12-20T08:44:32.457Z,101239.46
2017-12-20T08:46:58.806Z,101244.66
2017-12-20T08:49:25.550Z,101238.81
2017-12-20T08:51:51.970Z,101234.27
2017-12-20T08:54:18.293Z,101242.70
2017-12-20T08:56:44.610Z,101233.83
2017-12-20T08:59:10.973Z,101230.00
2017-12-20T09:01:37.377Z,101226.53
2017-12-20T09:04:03.746Z,101229.53
2017-12-20T09:06:30.149Z,101227.77
2017-12-20T09:08:56.469Z,101227.41
2017-12-20T09:11:22.813Z,101228.35
2017-12-20T09:13:49.298Z,101219.27
2017-12-20T09:16:15.678Z,101217.46
2017-12-20T09:18:42.093Z,101217.83
2017-12-20T09:21:08.594Z,101212.57
2017-12-20T09:23:34.962Z,101211.78
2017-12-20T09:26:01.501Z,101212.28
2017-12-20T09:28:28.005Z,101209.69
2017-12-20T09:30:54.394Z,101209.30
2017-12-20T09:33:20.834Z,101205.79
2017-12-20T09:35:47.266Z,101199.75
2017-12-20T09:38:13.653Z,101201.02
2017-12-20T09:40:40.048Z,101200.13
2017-12-20T09:43:06.497Z,101192.34
2017-12-20T09:45:32.817Z,101187.20
2017-12-20T09:47:59.266Z,101182.84
2017-12-20T09:50:25.787Z,101176.37
2017-12-20T09:52:52.229Z,101175.05
2017-12-20T09:55:18.586Z,101166.81
2017-12-20T09:57:44.960Z,101164.23
2017-12-20T10:00:11.424Z,101167.28
2017-12-20T10:02:37.935Z,101161.23
2017-12-20T10:05:04.501Z,101161.69
2017-12-20T10:07:30.913Z,101160.81
2017-12-20T10:09:57.366Z,101160.80
2017-12-20T10:12:23.827Z,101156.44
2017-12-20T10:14:50.281Z,101153.44
2017-12-20T10:17:16.666Z,101147.34
2017-12-20T10:19:43.205Z,101148.66
2017-12-20T10:22:09.829Z,101148.22
2017-12-20T10:24:36.278Z,101136.50
2017-12-20T10:27:02.741Z,101131.72
2017-12-20T10:29:29.173Z,101129.13
2017-12-20T10:31:55.678Z,101116.97
2017-12-20T10:34:22.151Z,101113.52
2017-12-20T10:36:48.565Z,101113.52
2017-12-20T10:39:14.962Z,101100.90
2017-12-20T10:41:41.363Z,101097.02
2017-12-20T10:44:07.762Z,101105.67
2017-12-20T10:46:34.261Z,101100.91
2017-12-20T10:49:00.857Z,101100.03
2017-12-20T10:51:27.313Z,101093.09
2017-12-20T10:53:53.845Z,101094.78
2017-12-20T10:56:20.350Z,101090.81
2017-12-20T10:58:46.821Z,101089.55
2017-12-20T11:01:13.257Z,101089.02
2017-12-20T11:03:39.754Z,101086.83
2017-12-20T11:06:06.241Z,101085.11
2017-12-20T11:08:32.653Z,101080.89
2017-12-20T11:10:59.105Z,101080.04
2017-12-20T11:13:25.594Z,101079.13
2017-12-20T11:15:51.957Z,101080.07
2017-12-20T11:18:18.465Z,101079.62
2017-12-20T11:20:45.001Z,101073.99
2017-12-20T11:23:11.456Z,101082.20
2017-12-20T11:25:37.944Z,101081.69
2017-12-20T11:28:04.345Z,101078.19
2017-12-20T11:30:30.889Z,101069.88
2017-12-20T11:32:57.372Z,101073.77
2017-12-20T11:35:23.849Z,101072.22
2017-12-20T11:37:50.490Z,101070.89
2017-12-20T11:40:16.977Z,101066.09
2017-12-20T11:42:43.571Z,101062.72
2017-12-20T11:45:09.965Z,101061.80
2017-12-20T11:47:36.409Z,101057.45
2017-12-20T11:50:03.219Z,101065.19
2017-12-20T11:52:29.886Z,101056.86
2017-12-20T11:54:56.337Z,101052.16
2017-12-20T11:57:22.676Z,101055.62
2017-12-20T11:59:49.293Z,101051.70
2017-12-20T12:02:15.784Z,101052.61
2017-12-20T12:04:42.501Z,101047.82
2017-12-20T12:07:08.871Z,101036.06
2017-12-20T12:09:35.285Z,101043.17
2017-12-20T12:12:01.726Z,101044.92
2017-12-20T12:14:28.210Z,101044.47
2017-12-20T12:16:54.606Z,101042.25
2017-12-20T12:19:21.140Z,101043.56
2017-12-20T12:21:47.715Z,101044.44
2017-12-20T12:24:14.182Z,101045.77
2017-12-20T12:26:40.674Z,101039.31
2017-12-20T12:29:07.101Z,101042.72
2017-12-20T12:31:33.653Z,101045.27
2017-12-20T12:34:00.074Z,101051.30
2017-12-20T12:36:26.565Z,101052.22
2017-12-20T12:38:53.000Z,101047.88
2017-12-20T12:41:19.614Z,101046.65
2017-12-20T12:43:46.038Z,101044.44
2017-12-20T12:46:12.493Z,101045.27
2017-12-20T12:48:39.264Z,101044.81
2017-12-20T12:51:05.717Z,101051.75
2017-12-20T12:53:32.377Z,101044.29
2017-12-20T12:55:58.906Z,101048.20
2017-12-20T12:58:25.401Z,101053.00
2017-12-20T13:00:51.994Z,101053.04
2017-12-20T13:03:18.382Z,101055.22
2017-12-20T13:05:44.814Z,101056.61
2017-12-20T13:08:11.236Z,101052.66
2017-12-20T13:10:37.617Z,101054.41
2017-12-20T13:13:04.125Z,101060.53
2017-12-20T13:15:30.517Z,101056.14
2017-12-20T13:17:57.026Z,101056.66
2017-12-20T13:20:23.444Z,101057.95
2017-12-20T13:22:49.898Z,101059.67
2017-12-20T13:25:16.280Z,101064.45
2017-12-20T13:27:42.773Z,101057.06
2017-12-20T13:30:09.194Z,101058.38
2017-12-20T13:32:35.615Z,101060.96
2017-12-20T13:35:02.026Z,101062.66
2017-12-20T13:37:28.473Z,101064.88
2017-12-20T13:39:54.981Z,101067.05
2017-12-20T13:42:21.357Z,101061.81
2017-12-20T13:44:47.777Z,101054.88
2017-12-20T13:47:14.205Z,101057.53
2017-12-20T13:49:40.638Z,101054.02
2017-12-20T13:52:07.173Z,101060.08
2017-12-20T13:54:33.609Z,101060.95
2017-12-20T13:57:00.066Z,101061.82
2017-12-20T13:59:26.648Z,101062.67
2017-12-20T14:01:53.080Z,101063.51
2017-12-20T14:04:19.528Z,101067.39
2017-12-20T14:06:45.953Z,101069.58
2017-12-20T14:09:12.429Z,101069.53
2017-12-20T14:11:39.041Z,101068.72
2017-12-20T14:14:05.481Z,101078.68
2017-12-20T14:16:32.039Z,101073.05
2017-12-20T14:18:58.477Z,101076.92
2017-12-20T14:21:24.877Z,101072.18
2017-12-20T14:23:51.262Z,101077.03
2017-12-20T14:26:17.653Z,101073.12
2017-12-20T14:28:44.032Z,101075.30
2017-12-20T14:31:10.467Z,101073.56
2017-12-20T14:33:36.866Z,101073.12
2017-12-20T14:36:03.346Z,101078.78
2017-12-20T14:38:29.775Z,101081.39
2017-12-20T14:40:56.134Z,101085.28
2017-12-20T14:43:22.543Z,101080.52
2017-12-20T14:45:48.922Z,101087.02
2017-12-20T14:48:15.303Z,101086.17
2017-12-20T14:50:41.675Z,101088.31
2017-12-20T14:53:08.045Z,101081.38
2017-12-20T14:55:34.458Z,101085.32
2017-12-20T14:58:00.889Z,101082.70
2017-12-20T15:00:27.370Z,101080.95
2017-12-20T15:02:53.969Z,101078.36
2017-12-20T15:05:20.533Z,101081.40
2017-12-20T15:07:47.049Z,101086.61
2017-12-20T15:10:13.437Z,101092.22
2017-12-20T15:12:39.890Z,101085.71
2017-12-20T15:15:06.298Z,101092.64
2017-12-20T15:17:32.774Z,101093.09
2017-12-20T15:19:59.202Z,101095.25
2017-12-20T15:22:25.741Z,101097.43
2017-12-20T15:24:52.217Z,101092.22
2017-12-20T15:27:18.789Z,101094.81
2017-12-20T15:29:45.373Z,101100.88
2017-12-20T15:32:11.936Z,101103.92
2017-12-20T15:34:38.413Z,101103.01
2017-12-20T15:37:04.780Z,101103.89
2017-12-20T15:39:31.327Z,101103.00
2017-12-20T15:41:57.777Z,101102.55
2017-12-20T15:44:24.249Z,101108.63
2017-12-20T15:46:50.582Z,101112.50
2017-12-20T15:49:17.037Z,101119.88
2017-12-20T15:51:43.513Z,101132.88
2017-12-20T15:54:09.898Z,101129.42
2017-12-20T15:56:36.321Z,101134.62
2017-12-20T15:59:02.690Z,101135.48
2017-12-20T16:01:29.102Z,101131.16
2017-12-20T16:03:55.659Z,101134.20
2017-12-20T16:06:22.112Z,101128.11
2017-12-20T16:08:48.509Z,101133.71
2017-12-20T16:11:14.989Z,101128.02
2017-12-20T16:13:41.350Z,101136.22
2017-12-20T16:16:07.734Z,101134.91
2017-12-20T16:18:34.181Z,101139.25
2017-12-20T16:21:00.573Z,101142.70
2017-12-20T16:23:27.817Z,101147.05
2017-12-20T16:25:54.237Z,101150.09
2017-12-20T16:28:20.596Z,101148.27
2017-12-20T16:30:47.156Z,101153.87
2017-12-20T16:33:14.069Z,101154.53
2017-12-20T16:35:40.566Z,101159.28
2017-12-20T16:38:06.958Z,101159.79
2017-12-20T16:40:33.387Z,101167.63
2017-12-20T16:42:59.903Z,101175.44
2017-12-20T16:45:29.473Z,101174.95
2017-12-20T16:47:56.355Z,101186.16
2017-12-20T16:50:22.818Z,101189.23
2017-12-20T16:52:49.217Z,101192.30
2017-12-20T16:55:15.630Z,101198.78
2017-12-20T16:57:42.038Z,101198.30
2017-12-20T17:00:08.470Z,101193.47
2017-12-20T17:02:34.934Z,101207.66
2017-12-20T17:05:01.669Z,101202.36
2017-12-20T17:07:28.126Z,101208.78
2017-12-20T17:09:54.715Z,101208.70
2017-12-20T17:12:21.169Z,101218.94
2017-12-20T17:14:47.629Z,101215.82
2017-12-20T17:17:14.117Z,101212.78
2017-12-20T17:19:40.552Z,101222.21
2017-12-20T17:22:07.029Z,101210.05
2017-12-20T17:24:33.498Z,101209.53
2017-12-20T17:26:59.890Z,101213.02
2017-12-20T17:29:26.282Z,101203.88
2017-12-20T17:31:52.701Z,101206.01
2017-12-20T17:34:19.130Z,101209.50
2017-12-20T17:36:45.598Z,101210.34
2017-12-20T17:39:12.102Z,101209.06
2017-12-20T17:41:38.513Z,101202.53
2017-12-20T17:44:05.123Z,101213.64
2017-12-20T17:46:31.636Z,101208.86
2017-12-20T17:48:58.124Z,101204.94
2017-12-20T17:51:24.497Z,101199.74
2017-12-20T17:53:50.897Z,101195.03
2017-12-20T17:56:17.529Z,101196.37
2017-12-20T17:58:43.929Z,101209.38
2017-12-20T18:01:10.382Z,101205.86
2017-12-20T18:03:36.737Z,101203.23
2017-12-20T18:06:03.181Z,101205.30
2017-12-20T18:08:29.633Z,101204.44
2017-12-20T18:10:56.004Z,101209.65
2017-12-20T18:13:22.381Z,101209.53
2017-12-20T18:15:48.797Z,101206.16
2017-12-20T18:18:15.233Z,101205.22
2017-12-20T18:20:41.641Z,101213.09
2017-12-20T18:23:08.069Z,101217.04
2017-12-20T18:25:34.749Z,101223.53
2017-12-20T18:28:01.194Z,101224.88
2017-12-20T18:30:27.666Z,101227.03
2017-12-20T18:32:54.062Z,101227.81
2017-12-20T18:35:20.473Z,101225.59
2017-12-20T18:37:47.078Z,101227.38
2017-12-20T18:40:13.486Z,101227.88
2017-12-20T18:42:39.909Z,101225.74
2017-12-20T18:45:06.477Z,101236.59
2017-12-20T18:47:32.933Z,101231.39
2017-12-20T18:49:59.349Z,101233.95
2017-12-20T18:52:25.793Z,101235.30
2017-12-20T18:54:52.257Z,101227.60
2017-12-20T18:57:18.768Z,101223.35
2017-12-20T18:59:45.334Z,101225.69
2017-12-20T19:02:11.735Z,101216.23
2017-12-20T19:04:38.257Z,101217.49
2017-12-20T19:07:04.801Z,101220.94
2017-12-20T19:09:31.194Z,101224.88
2017-12-20T19:11:57.625Z,101224.54
2017-12-20T19:14:24.853Z,101211.19
2017-12-20T19:16:51.263Z,101214.59
2017-12-20T19:19:17.773Z,101212.38
2017-12-20T19:21:44.246Z,101218.95
2017-12-20T19:24:10.642Z,101214.29
2017-12-20T19:26:37.033Z,101210.03
2017-12-20T19:29:03.616Z,101214.86
2017-12-20T19:31:30.030Z,101213.56
2017-12-20T19:33:56.412Z,101212.70
2017-12-20T19:36:22.889Z,101209.64
2017-12-20T19:38:49.311Z,101210.42
2017-12-20T19:41:15.646Z,101205.14
2017-12-20T19:43:42.266Z,101206.44
2017-12-20T19:46:08.721Z,101221.64
2017-12-20T19:48:35.237Z,101220.86
2017-12-20T19:51:01.688Z,101223.45
2017-12-20T19:53:28.117Z,101217.88
2017-12-20T19:55:54.558Z,101213.95
2017-12-20T19:58:20.970Z,101214.34
2017-12-20T20:00:47.484Z,101212.99
2017-12-20T20:03:13.901Z,101205.65
2017-12-20T20:05:40.393Z,101206.95
2017-12-20T20:08:06.749Z,101198.78
2017-12-20T20:10:33.126Z,101203.05
2017-12-20T20:12:59.580Z,101196.16
2017-12-20T20:15:26.006Z,101189.66
2017-12-20T20:17:52.378Z,101190.04
2017-12-20T20:20:18.833Z,101199.48
2017-12-20T20:22:45.174Z,101194.71
2017-12-20T20:25:11.574Z,101191.76
2017-12-20T20:27:37.982Z,101197.01
2017-12-20T20:30:04.429Z,101200.05
2017-12-20T20:32:30.791Z,101205.17
2017-12-20T20:34:57.222Z,101213.35
2017-12-20T20:37:23.656Z,101215.05
2017-12-20T20:39:49.996Z,101211.55
2017-12-20T20:42:16.453Z,101210.63
2017-12-20T20:44:42.854Z,101210.67
2017-12-20T20:47:09.185Z,101215.84
2017-12-20T20:49:35.578Z,101210.30
2017-12-20T20:52:02.017Z,101207.28
2017-12-20T20:54:28.430Z,101203.83
2017-12-20T20:56:54.846Z,101205.17
2017-12-20T20:59:21.335Z,101202.58
2017-12-20T21:01:47.874Z,101199.56
2017-12-20T21:04:14.405Z,101208.56
2017-12-20T21:06:40.823Z,101202.08
2017-12-20T21:09:07.267Z,101208.56
2017-12-20T21:11:33.664Z,101216.30
2017-12-20T21:14:00.038Z,101211.52
2017-12-20T21:16:26.394Z,101211.05
2017-12-20T21:18:52.794Z,101205.34
2017-12-20T21:21:19.170Z,101209.17
2017-12-20T21:23:45.581Z,101225.10
2017-12-20T21:26:11.989Z,101227.97
2017-12-20T21:28:38.449Z,101229.66
2017-12-20T21:31:04.801Z,101218.04
2017-12-20T21:33:31.181Z,101224.50
2017-12-20T21:35:57.526Z,101228.06
2017-12-20T21:38:23.910Z,101224.73
2017-12-20T21:40:50.292Z,101224.78
2017-12-20T21:43:16.694Z,101233.97
2017-12-20T21:45:43.053Z,101232.22
2017-12-20T21:48:09.505Z,101237.47
2017-12-20T21:50:35.953Z,101221.84
2017-12-20T21:53:02.433Z,101212.25
2017-12-20T21:55:28.868Z,101215.16
2017-12-20T21:57:55.266Z,101215.16
2017-12-20T22:00:21.687Z,101213.41
2017-12-20T22:02:48.125Z,101207.42
2017-12-20T22:05:14.526Z,101202.66
2017-12-20T22:07:40.882Z,101199.03
2017-12-20T22:10:07.289Z,101197.33
2017-12-20T22:12:33.684Z,101191.72
2017-12-20T22:15:00.033Z,101200.75
2017-12-20T22:17:26.397Z,101197.28
2017-12-20T22:19:52.733Z,101197.25
2017-12-20T22:22:19.058Z,101193.83
2017-12-20T22:24:45.422Z,101202.45
2017-12-20T22:27:11.783Z,101206.84
2017-12-20T22:29:38.186Z,101214.15
2017-12-20T22:32:04.605Z,101206.47
2017-12-20T22:34:30.937Z,101200.43
2017-12-20T22:36:57.369Z,101207.81
2017-12-20T22:39:23.737Z,101204.83
2017-12-20T22:41:50.099Z,101201.39
2017-12-20T22:44:16.649Z,101193.20
2017-12-20T22:46:43.066Z,101190.19
2017-12-20T22:49:09.413Z,101196.72
2017-12-20T22:51:35.745Z,101193.30
2017-12-20T22:54:02.106Z,101201.05
2017-12-20T22:56:28.442Z,101205.44
2017-12-20T22:58:54.844Z,101205.09
2017-12-20T23:01:21.249Z,101207.72
2017-12-20T23:03:47.581Z,101210.91
2017-12-20T23:06:13.937Z,101197.92
2017-12-20T23:08:40.337Z,101203.11
2017-12-20T23:11:06.674Z,101195.31
2017-12-20T23:13:33.028Z,101193.97
2017-12-20T23:15:59.397Z,101191.30
2017-12-20T23:18:25.755Z,101193.83
2017-12-20T23:20:52.100Z,101203.31
2017-12-20T23:23:18.489Z,101204.55
2017-12-20T23:25:44.865Z,101215.73
2017-12-20T23:28:11.274Z,101217.47
2017-12-20T23:30:37.673Z,101228.74
2017-12-20T23:33:04.009Z,101227.84
2017-12-20T23:35:30.569Z,101234.23
2017-12-20T23:37:56.994Z,101228.66
2017-12-20T23:40:23.365Z,101233.47
2017-12-20T23:42:49.881Z,101244.23
2017-12-20T23:45:16.322Z,101249.83
2017-12-20T23:47:42.729Z,101254.97
2017-12-20T23:50:09.168Z,101249.64
2017-12-20T23:52:35.570Z,101249.59
2017-12-20T23:55:01.922Z,101256.47
2017-12-20T23:57:28.271Z,101255.17
2017-12-20T23:59:54.658Z,101252.59
